sensor_id;sensor_type;location;lat;lon;timestamp;P1;durP1;ratioP1;P2;durP2;ratioP2
65373;SDS011;52070;53.760;9.678;2023-04-01T00:02:08;19.50;;;8.30;;
65373;SDS011;52070;53.760;9.678;2023-04-01T00:04:34;13.73;;;7.85;;
65373;SDS011;52070;53.760;9.678;2023-04-01T00:07:01;15.95;;;8.15;;
65373;SDS011;52070;53.760;9.678;2023-04-01T00:09:28;18.67;;;8.25;;
65373;SDS011;52070;53.760;9.678;2023-04-01T00:11:55;20.52;;;9.23;;
65373;SDS011;52070;53.760;9.678;2023-04-01T00:14:24;15.52;;;8.70;;
65373;SDS011;52070;53.760;9.678;2023-04-01T00:16:51;23.58;;;8.55;;
65373;SDS011;52070;53.760;9.678;2023-04-01T00:19:17;22.70;;;9.57;;
65373;SDS011;52070;53.760;9.678;2023-04-01T00:21:45;16.65;;;8.35;;
65373;SDS011;52070;53.760;9.678;2023-04-01T00:24:11;17.58;;;9.80;;
65373;SDS011;52070;53.760;9.678;2023-04-01T00:26:38;21.83;;;9.75;;
65373;SDS011;52070;53.760;9.678;2023-04-01T00:29:07;16.55;;;8.63;;
65373;SDS011;52070;53.760;9.678;2023-04-01T00:31:36;22.88;;;9.88;;
65373;SDS011;52070;53.760;9.678;2023-04-01T00:34:03;24.08;;;9.82;;
65373;SDS011;52070;53.760;9.678;2023-04-01T00:36:30;15.70;;;9.40;;
65373;SDS011;52070;53.760;9.678;2023-04-01T00:38:57;22.83;;;9.65;;
65373;SDS011;52070;53.760;9.678;2023-04-01T00:41:25;19.95;;;9.82;;
65373;SDS011;52070;53.760;9.678;2023-04-01T00:46:43;24.63;;;9.90;;
65373;SDS011;52070;53.760;9.678;2023-04-01T00:49:10;22.60;;;10.13;;
65373;SDS011;52070;53.760;9.678;2023-04-01T00:51:37;20.63;;;10.80;;
65373;SDS011;52070;53.760;9.678;2023-04-01T00:54:07;17.70;;;9.88;;
65373;SDS011;52070;53.760;9.678;2023-04-01T00:56:36;19.10;;;10.18;;
65373;SDS011;52070;53.760;9.678;2023-04-01T01:01:36;16.20;;;9.13;;
65373;SDS011;52070;53.760;9.678;2023-04-01T01:04:05;20.60;;;10.23;;
65373;SDS011;52070;53.760;9.678;2023-04-01T01:06:37;29.85;;;10.65;;
65373;SDS011;52070;53.760;9.678;2023-04-01T01:09:14;16.38;;;9.68;;
65373;SDS011;52070;53.760;9.678;2023-04-01T01:11:54;20.25;;;9.85;;
65373;SDS011;52070;53.760;9.678;2023-04-01T01:14:31;19.90;;;10.15;;
65373;SDS011;52070;53.760;9.678;2023-04-01T01:17:07;25.52;;;10.45;;
65373;SDS011;52070;53.760;9.678;2023-04-01T01:20:01;23.92;;;10.68;;
65373;SDS011;52070;53.760;9.678;2023-04-01T01:22:52;22.27;;;10.05;;
65373;SDS011;52070;53.760;9.678;2023-04-01T01:25:32;22.33;;;9.82;;
65373;SDS011;52070;53.760;9.678;2023-04-01T01:28:14;22.95;;;10.23;;
65373;SDS011;52070;53.760;9.678;2023-04-01T01:30:56;25.40;;;10.55;;
65373;SDS011;52070;53.760;9.678;2023-04-01T01:33:34;20.92;;;10.38;;
65373;SDS011;52070;53.760;9.678;2023-04-01T01:36:07;19.65;;;9.90;;
65373;SDS011;52070;53.760;9.678;2023-04-01T01:38:37;25.30;;;10.55;;
65373;SDS011;52070;53.760;9.678;2023-04-01T01:41:05;18.50;;;9.68;;
65373;SDS011;52070;53.760;9.678;2023-04-01T01:43:35;23.02;;;10.60;;
65373;SDS011;52070;53.760;9.678;2023-04-01T01:46:07;24.65;;;10.93;;
65373;SDS011;52070;53.760;9.678;2023-04-01T01:48:38;21.98;;;10.65;;
65373;SDS011;52070;53.760;9.678;2023-04-01T01:51:08;18.30;;;10.48;;
65373;SDS011;52070;53.760;9.678;2023-04-01T01:53:35;21.58;;;10.85;;
65373;SDS011;52070;53.760;9.678;2023-04-01T01:56:02;21.55;;;10.98;;
65373;SDS011;52070;53.760;9.678;2023-04-01T01:58:30;22.20;;;11.32;;
65373;SDS011;52070;53.760;9.678;2023-04-01T02:01:01;22.58;;;10.57;;
65373;SDS011;52070;53.760;9.678;2023-04-01T02:03:31;25.40;;;10.77;;
65373;SDS011;52070;53.760;9.678;2023-04-01T02:06:01;21.38;;;10.50;;
65373;SDS011;52070;53.760;9.678;2023-04-01T02:08:33;23.93;;;10.40;;
65373;SDS011;52070;53.760;9.678;2023-04-01T02:11:03;20.42;;;9.73;;
65373;SDS011;52070;53.760;9.678;2023-04-01T02:13:33;23.42;;;9.88;;
65373;SDS011;52070;53.760;9.678;2023-04-01T02:16:05;23.23;;;11.15;;
65373;SDS011;52070;53.760;9.678;2023-04-01T02:18:38;25.60;;;11.25;;
65373;SDS011;52070;53.760;9.678;2023-04-01T02:21:06;15.27;;;9.88;;
65373;SDS011;52070;53.760;9.678;2023-04-01T02:23:36;24.10;;;10.40;;
65373;SDS011;52070;53.760;9.678;2023-04-01T02:26:04;19.48;;;10.57;;
65373;SDS011;52070;53.760;9.678;2023-04-01T02:28:33;25.88;;;10.65;;
65373;SDS011;52070;53.760;9.678;2023-04-01T02:31:00;23.27;;;11.05;;
65373;SDS011;52070;53.760;9.678;2023-04-01T02:33:28;23.35;;;10.00;;
65373;SDS011;52070;53.760;9.678;2023-04-01T02:35:57;20.13;;;10.35;;
65373;SDS011;52070;53.760;9.678;2023-04-01T02:38:24;21.35;;;10.20;;
65373;SDS011;52070;53.760;9.678;2023-04-01T02:40:58;16.27;;;9.65;;
65373;SDS011;52070;53.760;9.678;2023-04-01T02:43:26;19.33;;;9.93;;
65373;SDS011;52070;53.760;9.678;2023-04-01T02:45:53;19.75;;;10.00;;
65373;SDS011;52070;53.760;9.678;2023-04-01T02:48:20;18.20;;;9.93;;
65373;SDS011;52070;53.760;9.678;2023-04-01T02:50:47;23.42;;;9.60;;
65373;SDS011;52070;53.760;9.678;2023-04-01T02:53:15;20.85;;;9.73;;
65373;SDS011;52070;53.760;9.678;2023-04-01T02:55:42;22.67;;;9.65;;
65373;SDS011;52070;53.760;9.678;2023-04-01T02:58:11;16.40;;;9.52;;
65373;SDS011;52070;53.760;9.678;2023-04-01T03:00:38;19.58;;;9.70;;
65373;SDS011;52070;53.760;9.678;2023-04-01T03:03:05;19.80;;;9.63;;
65373;SDS011;52070;53.760;9.678;2023-04-01T03:05:32;18.83;;;10.27;;
65373;SDS011;52070;53.760;9.678;2023-04-01T03:07:59;25.38;;;10.00;;
65373;SDS011;52070;53.760;9.678;2023-04-01T03:10:26;18.55;;;9.50;;
65373;SDS011;52070;53.760;9.678;2023-04-01T03:12:53;19.38;;;8.90;;
65373;SDS011;52070;53.760;9.678;2023-04-01T03:15:22;19.15;;;9.23;;
65373;SDS011;52070;53.760;9.678;2023-04-01T03:17:48;21.17;;;9.40;;
65373;SDS011;52070;53.760;9.678;2023-04-01T03:20:16;22.52;;;10.43;;
65373;SDS011;52070;53.760;9.678;2023-04-01T03:22:44;22.23;;;8.98;;
65373;SDS011;52070;53.760;9.678;2023-04-01T03:25:12;20.55;;;9.02;;
65373;SDS011;52070;53.760;9.678;2023-04-01T03:27:39;19.60;;;8.80;;
65373;SDS011;52070;53.760;9.678;2023-04-01T03:30:06;15.00;;;9.20;;
65373;SDS011;52070;53.760;9.678;2023-04-01T03:32:36;17.13;;;8.90;;
65373;SDS011;52070;53.760;9.678;2023-04-01T03:35:03;20.08;;;9.20;;
65373;SDS011;52070;53.760;9.678;2023-04-01T03:37:31;15.00;;;8.65;;
65373;SDS011;52070;53.760;9.678;2023-04-01T03:39:58;18.15;;;9.48;;
65373;SDS011;52070;53.760;9.678;2023-04-01T03:42:25;18.05;;;9.32;;
65373;SDS011;52070;53.760;9.678;2023-04-01T03:44:52;22.45;;;9.32;;
65373;SDS011;52070;53.760;9.678;2023-04-01T03:47:19;17.55;;;8.95;;
65373;SDS011;52070;53.760;9.678;2023-04-01T03:49:47;17.30;;;10.02;;
65373;SDS011;52070;53.760;9.678;2023-04-01T03:52:14;8.82;;;6.07;;
65373;SDS011;52070;53.760;9.678;2023-04-01T03:54:41;8.15;;;4.82;;
65373;SDS011;52070;53.760;9.678;2023-04-01T03:57:07;6.55;;;4.60;;
65373;SDS011;52070;53.760;9.678;2023-04-01T03:59:34;6.25;;;3.90;;
65373;SDS011;52070;53.760;9.678;2023-04-01T04:02:02;5.38;;;3.40;;
65373;SDS011;52070;53.760;9.678;2023-04-01T04:04:29;5.10;;;3.47;;
65373;SDS011;52070;53.760;9.678;2023-04-01T04:06:57;4.68;;;3.50;;
65373;SDS011;52070;53.760;9.678;2023-04-01T04:09:24;4.03;;;3.10;;
65373;SDS011;52070;53.760;9.678;2023-04-01T04:11:51;4.40;;;3.13;;
65373;SDS011;52070;53.760;9.678;2023-04-01T04:14:18;4.65;;;3.33;;
65373;SDS011;52070;53.760;9.678;2023-04-01T04:16:47;4.72;;;3.10;;
65373;SDS011;52070;53.760;9.678;2023-04-01T04:19:14;5.93;;;3.08;;
65373;SDS011;52070;53.760;9.678;2023-04-01T04:21:41;4.40;;;3.47;;
65373;SDS011;52070;53.760;9.678;2023-04-01T04:24:09;4.38;;;3.33;;
65373;SDS011;52070;53.760;9.678;2023-04-01T04:26:36;5.18;;;3.10;;
65373;SDS011;52070;53.760;9.678;2023-04-01T04:29:03;4.75;;;3.15;;
65373;SDS011;52070;53.760;9.678;2023-04-01T04:31:30;5.07;;;3.50;;
65373;SDS011;52070;53.760;9.678;2023-04-01T04:33:58;4.75;;;3.55;;
65373;SDS011;52070;53.760;9.678;2023-04-01T04:36:25;4.55;;;3.60;;
65373;SDS011;52070;53.760;9.678;2023-04-01T04:38:52;4.47;;;3.25;;
65373;SDS011;52070;53.760;9.678;2023-04-01T04:41:21;5.28;;;3.30;;
65373;SDS011;52070;53.760;9.678;2023-04-01T04:43:48;4.13;;;3.13;;
65373;SDS011;52070;53.760;9.678;2023-04-01T04:46:16;3.03;;;2.72;;
65373;SDS011;52070;53.760;9.678;2023-04-01T04:48:43;3.17;;;2.78;;
65373;SDS011;52070;53.760;9.678;2023-04-01T04:51:12;3.65;;;2.72;;
65373;SDS011;52070;53.760;9.678;2023-04-01T04:53:40;4.00;;;2.70;;
65373;SDS011;52070;53.760;9.678;2023-04-01T04:56:06;3.47;;;2.85;;
65373;SDS011;52070;53.760;9.678;2023-04-01T04:58:35;3.28;;;2.30;;
65373;SDS011;52070;53.760;9.678;2023-04-01T05:01:05;8.10;;;2.70;;
65373;SDS011;52070;53.760;9.678;2023-04-01T05:05:59;3.90;;;2.05;;
65373;SDS011;52070;53.760;9.678;2023-04-01T05:08:26;2.10;;;1.90;;
65373;SDS011;52070;53.760;9.678;2023-04-01T05:10:53;2.97;;;2.00;;
65373;SDS011;52070;53.760;9.678;2023-04-01T05:13:20;2.30;;;1.80;;
65373;SDS011;52070;53.760;9.678;2023-04-01T05:15:49;2.03;;;1.73;;
65373;SDS011;52070;53.760;9.678;2023-04-01T05:18:16;2.10;;;1.55;;
65373;SDS011;52070;53.760;9.678;2023-04-01T05:20:45;2.13;;;1.67;;
65373;SDS011;52070;53.760;9.678;2023-04-01T05:23:14;2.92;;;1.52;;
65373;SDS011;52070;53.760;9.678;2023-04-01T05:25:41;1.90;;;1.70;;
65373;SDS011;52070;53.760;9.678;2023-04-01T05:28:08;2.20;;;1.70;;
65373;SDS011;52070;53.760;9.678;2023-04-01T05:30:35;2.28;;;1.70;;
65373;SDS011;52070;53.760;9.678;2023-04-01T05:33:03;1.75;;;1.40;;
65373;SDS011;52070;53.760;9.678;2023-04-01T05:35:30;1.52;;;1.40;;
65373;SDS011;52070;53.760;9.678;2023-04-01T05:37:57;1.85;;;1.40;;
65373;SDS011;52070;53.760;9.678;2023-04-01T05:40:24;1.73;;;1.48;;
65373;SDS011;52070;53.760;9.678;2023-04-01T05:42:51;1.63;;;1.52;;
65373;SDS011;52070;53.760;9.678;2023-04-01T05:45:17;2.88;;;1.52;;
65373;SDS011;52070;53.760;9.678;2023-04-01T05:47:44;4.55;;;1.30;;
65373;SDS011;52070;53.760;9.678;2023-04-01T05:50:15;4.85;;;1.55;;
65373;SDS011;52070;53.760;9.678;2023-04-01T05:55:10;2.50;;;1.33;;
65373;SDS011;52070;53.760;9.678;2023-04-01T05:57:37;3.13;;;1.60;;
65373;SDS011;52070;53.760;9.678;2023-04-01T06:00:04;1.45;;;1.35;;
65373;SDS011;52070;53.760;9.678;2023-04-01T06:02:32;3.10;;;1.40;;
65373;SDS011;52070;53.760;9.678;2023-04-01T06:05:02;2.25;;;1.40;;
65373;SDS011;52070;53.760;9.678;2023-04-01T06:07:38;2.88;;;1.20;;
65373;SDS011;52070;53.760;9.678;2023-04-01T06:10:09;1.50;;;1.30;;
65373;SDS011;52070;53.760;9.678;2023-04-01T06:12:44;1.55;;;1.30;;
65373;SDS011;52070;53.760;9.678;2023-04-01T06:15:20;4.15;;;1.80;;
65373;SDS011;52070;53.760;9.678;2023-04-01T06:17:59;1.92;;;1.38;;
65373;SDS011;52070;53.760;9.678;2023-04-01T06:20:42;1.55;;;1.15;;
65373;SDS011;52070;53.760;9.678;2023-04-01T06:23:20;2.42;;;1.40;;
65373;SDS011;52070;53.760;9.678;2023-04-01T06:25:58;2.97;;;1.50;;
65373;SDS011;52070;53.760;9.678;2023-04-01T06:31:25;2.08;;;1.42;;
65373;SDS011;52070;53.760;9.678;2023-04-01T06:34:06;2.38;;;1.25;;
65373;SDS011;52070;53.760;9.678;2023-04-01T06:37:00;1.95;;;1.20;;
65373;SDS011;52070;53.760;9.678;2023-04-01T06:39:46;1.30;;;1.10;;
65373;SDS011;52070;53.760;9.678;2023-04-01T06:42:31;1.92;;;1.30;;
65373;SDS011;52070;53.760;9.678;2023-04-01T06:45:14;1.73;;;1.30;;
65373;SDS011;52070;53.760;9.678;2023-04-01T06:47:57;1.95;;;1.50;;
65373;SDS011;52070;53.760;9.678;2023-04-01T06:50:34;1.50;;;1.40;;
65373;SDS011;52070;53.760;9.678;2023-04-01T06:53:09;2.05;;;1.52;;
65373;SDS011;52070;53.760;9.678;2023-04-01T06:55:41;2.17;;;1.27;;
65373;SDS011;52070;53.760;9.678;2023-04-01T06:58:13;1.33;;;1.23;;
65373;SDS011;52070;53.760;9.678;2023-04-01T07:00:48;4.88;;;1.50;;
65373;SDS011;52070;53.760;9.678;2023-04-01T07:03:19;2.30;;;1.42;;
65373;SDS011;52070;53.760;9.678;2023-04-01T07:05:49;2.25;;;1.52;;
65373;SDS011;52070;53.760;9.678;2023-04-01T07:08:18;5.03;;;1.52;;
65373;SDS011;52070;53.760;9.678;2023-04-01T07:10:52;2.40;;;1.42;;
65373;SDS011;52070;53.760;9.678;2023-04-01T07:13:23;1.85;;;1.30;;
65373;SDS011;52070;53.760;9.678;2023-04-01T07:16:03;1.75;;;1.50;;
65373;SDS011;52070;53.760;9.678;2023-04-01T07:18:37;2.83;;;1.50;;
65373;SDS011;52070;53.760;9.678;2023-04-01T07:21:09;2.08;;;1.33;;
65373;SDS011;52070;53.760;9.678;2023-04-01T07:23:42;3.38;;;1.40;;
65373;SDS011;52070;53.760;9.678;2023-04-01T07:26:17;1.85;;;1.48;;
65373;SDS011;52070;53.760;9.678;2023-04-01T07:28:46;2.53;;;1.70;;
65373;SDS011;52070;53.760;9.678;2023-04-01T07:31:15;1.90;;;1.70;;
65373;SDS011;52070;53.760;9.678;2023-04-01T07:33:52;2.08;;;1.52;;
65373;SDS011;52070;53.760;9.678;2023-04-01T07:36:29;5.97;;;2.03;;
65373;SDS011;52070;53.760;9.678;2023-04-01T07:39:04;3.83;;;1.70;;
65373;SDS011;52070;53.760;9.678;2023-04-01T07:41:42;2.13;;;1.67;;
65373;SDS011;52070;53.760;9.678;2023-04-01T07:44:19;2.55;;;1.58;;
65373;SDS011;52070;53.760;9.678;2023-04-01T07:47:13;1.90;;;1.58;;
65373;SDS011;52070;53.760;9.678;2023-04-01T07:49:50;2.80;;;1.65;;
65373;SDS011;52070;53.760;9.678;2023-04-01T07:52:29;1.60;;;1.38;;
65373;SDS011;52070;53.760;9.678;2023-04-01T07:55:02;4.72;;;1.42;;
65373;SDS011;52070;53.760;9.678;2023-04-01T07:57:38;2.22;;;1.42;;
65373;SDS011;52070;53.760;9.678;2023-04-01T08:00:15;2.00;;;1.80;;
65373;SDS011;52070;53.760;9.678;2023-04-01T08:02:57;1.98;;;1.23;;
65373;SDS011;52070;53.760;9.678;2023-04-01T08:05:39;4.85;;;1.30;;
65373;SDS011;52070;53.760;9.678;2023-04-01T08:08:12;1.85;;;1.35;;
65373;SDS011;52070;53.760;9.678;2023-04-01T08:10:47;1.67;;;1.20;;
65373;SDS011;52070;53.760;9.678;2023-04-01T08:13:23;2.63;;;1.48;;
65373;SDS011;52070;53.760;9.678;2023-04-01T08:16:01;2.40;;;1.00;;
65373;SDS011;52070;53.760;9.678;2023-04-01T08:18:38;3.72;;;1.15;;
65373;SDS011;52070;53.760;9.678;2023-04-01T08:21:11;1.10;;;0.98;;
65373;SDS011;52070;53.760;9.678;2023-04-01T08:23:43;2.08;;;1.15;;
65373;SDS011;52070;53.760;9.678;2023-04-01T08:26:15;2.73;;;1.10;;
65373;SDS011;52070;53.760;9.678;2023-04-01T08:28:52;1.05;;;0.93;;
65373;SDS011;52070;53.760;9.678;2023-04-01T08:31:24;0.80;;;0.80;;
65373;SDS011;52070;53.760;9.678;2023-04-01T08:33:56;1.40;;;1.10;;
65373;SDS011;52070;53.760;9.678;2023-04-01T08:36:24;1.60;;;1.00;;
65373;SDS011;52070;53.760;9.678;2023-04-01T08:38:56;1.17;;;1.08;;
65373;SDS011;52070;53.760;9.678;2023-04-01T08:41:33;2.85;;;1.00;;
65373;SDS011;52070;53.760;9.678;2023-04-01T08:47:44;2.17;;;0.90;;
65373;SDS011;52070;53.760;9.678;2023-04-01T08:50:20;1.15;;;0.98;;
65373;SDS011;52070;53.760;9.678;2023-04-01T08:52:59;1.77;;;1.13;;
65373;SDS011;52070;53.760;9.678;2023-04-01T08:55:31;1.38;;;1.13;;
65373;SDS011;52070;53.760;9.678;2023-04-01T08:58:16;1.52;;;1.05;;
65373;SDS011;52070;53.760;9.678;2023-04-01T09:00:57;1.58;;;1.02;;
65373;SDS011;52070;53.760;9.678;2023-04-01T09:03:36;1.00;;;0.90;;
65373;SDS011;52070;53.760;9.678;2023-04-01T09:15:20;1.02;;;0.70;;
65373;SDS011;52070;53.760;9.678;2023-04-01T09:18:13;0.88;;;0.73;;
65373;SDS011;52070;53.760;9.678;2023-04-01T09:21:00;1.35;;;0.80;;
65373;SDS011;52070;53.760;9.678;2023-04-01T09:23:41;2.83;;;1.10;;
65373;SDS011;52070;53.760;9.678;2023-04-01T09:26:34;0.93;;;0.90;;
65373;SDS011;52070;53.760;9.678;2023-04-01T09:29:14;0.70;;;0.65;;
65373;SDS011;52070;53.760;9.678;2023-04-01T09:31:57;0.68;;;0.68;;
65373;SDS011;52070;53.760;9.678;2023-04-01T09:37:41;1.65;;;0.70;;
65373;SDS011;52070;53.760;9.678;2023-04-01T09:40:21;1.27;;;0.60;;
65373;SDS011;52070;53.760;9.678;2023-04-01T09:43:02;0.93;;;0.80;;
65373;SDS011;52070;53.760;9.678;2023-04-01T09:45:44;1.58;;;0.70;;
65373;SDS011;52070;53.760;9.678;2023-04-01T09:48:24;1.55;;;0.77;;
65373;SDS011;52070;53.760;9.678;2023-04-01T09:51:05;0.95;;;0.63;;
65373;SDS011;52070;53.760;9.678;2023-04-01T09:53:46;1.17;;;0.70;;
65373;SDS011;52070;53.760;9.678;2023-04-01T09:59:35;2.00;;;0.75;;
65373;SDS011;52070;53.760;9.678;2023-04-01T10:05:34;1.70;;;0.63;;
65373;SDS011;52070;53.760;9.678;2023-04-01T10:14:34;1.85;;;0.70;;
65373;SDS011;52070;53.760;9.678;2023-04-01T10:20:21;3.20;;;0.93;;
65373;SDS011;52070;53.760;9.678;2023-04-01T10:23:02;0.80;;;0.60;;
65373;SDS011;52070;53.760;9.678;2023-04-01T10:26:03;0.68;;;0.65;;
65373;SDS011;52070;53.760;9.678;2023-04-01T10:29:00;2.55;;;0.95;;
65373;SDS011;52070;53.760;9.678;2023-04-01T10:31:50;2.30;;;0.65;;
65373;SDS011;52070;53.760;9.678;2023-04-01T10:40:51;1.70;;;1.10;;
65373;SDS011;52070;53.760;9.678;2023-04-01T10:43:48;1.08;;;1.05;;
65373;SDS011;52070;53.760;9.678;2023-04-01T10:46:47;2.33;;;1.20;;
65373;SDS011;52070;53.760;9.678;2023-04-01T10:49:39;2.30;;;1.23;;
65373;SDS011;52070;53.760;9.678;2023-04-01T10:52:23;5.18;;;1.52;;
65373;SDS011;52070;53.760;9.678;2023-04-01T10:55:12;1.88;;;1.33;;
65373;SDS011;52070;53.760;9.678;2023-04-01T10:58:04;1.40;;;1.20;;
65373;SDS011;52070;53.760;9.678;2023-04-01T11:00:57;2.85;;;1.40;;
65373;SDS011;52070;53.760;9.678;2023-04-01T11:03:40;4.47;;;1.70;;
65373;SDS011;52070;53.760;9.678;2023-04-01T11:06:37;4.18;;;2.25;;
65373;SDS011;52070;53.760;9.678;2023-04-01T11:19:52;4.50;;;2.60;;
65373;SDS011;52070;53.760;9.678;2023-04-01T11:22:41;6.25;;;2.65;;
65373;SDS011;52070;53.760;9.678;2023-04-01T11:25:23;4.72;;;2.80;;
65373;SDS011;52070;53.760;9.678;2023-04-01T11:28:09;8.88;;;2.75;;
65373;SDS011;52070;53.760;9.678;2023-04-01T11:31:10;8.63;;;3.08;;
65373;SDS011;52070;53.760;9.678;2023-04-01T11:33:49;9.77;;;3.28;;
65373;SDS011;52070;53.760;9.678;2023-04-01T11:36:32;6.43;;;3.45;;
65373;SDS011;52070;53.760;9.678;2023-04-01T11:39:13;6.05;;;3.72;;
65373;SDS011;52070;53.760;9.678;2023-04-01T11:41:49;8.80;;;3.92;;
65373;SDS011;52070;53.760;9.678;2023-04-01T11:44:23;8.98;;;3.63;;
65373;SDS011;52070;53.760;9.678;2023-04-01T11:46:56;8.75;;;3.88;;
65373;SDS011;52070;53.760;9.678;2023-04-01T11:49:37;14.10;;;4.30;;
65373;SDS011;52070;53.760;9.678;2023-04-01T11:52:28;10.68;;;4.30;;
65373;SDS011;52070;53.760;9.678;2023-04-01T11:55:22;12.57;;;4.20;;
65373;SDS011;52070;53.760;9.678;2023-04-01T12:00:49;7.75;;;3.97;;
65373;SDS011;52070;53.760;9.678;2023-04-01T12:03:29;8.40;;;3.85;;
65373;SDS011;52070;53.760;9.678;2023-04-01T12:06:21;8.07;;;3.80;;
65373;SDS011;52070;53.760;9.678;2023-04-01T12:08:59;11.68;;;3.75;;
65373;SDS011;52070;53.760;9.678;2023-04-01T12:11:38;9.30;;;4.10;;
65373;SDS011;52070;53.760;9.678;2023-04-01T12:14:13;13.32;;;5.13;;
65373;SDS011;52070;53.760;9.678;2023-04-01T12:16:51;14.13;;;4.25;;
65373;SDS011;52070;53.760;9.678;2023-04-01T12:19:27;14.93;;;4.53;;
65373;SDS011;52070;53.760;9.678;2023-04-01T12:22:04;8.75;;;4.20;;
65373;SDS011;52070;53.760;9.678;2023-04-01T12:24:47;9.27;;;4.80;;
65373;SDS011;52070;53.760;9.678;2023-04-01T12:27:24;7.60;;;4.32;;
65373;SDS011;52070;53.760;9.678;2023-04-01T12:30:06;10.07;;;5.05;;
65373;SDS011;52070;53.760;9.678;2023-04-01T12:32:53;9.80;;;4.80;;
65373;SDS011;52070;53.760;9.678;2023-04-01T12:35:31;9.10;;;4.85;;
65373;SDS011;52070;53.760;9.678;2023-04-01T12:38:13;12.90;;;5.15;;
65373;SDS011;52070;53.760;9.678;2023-04-01T12:40:48;10.73;;;5.10;;
65373;SDS011;52070;53.760;9.678;2023-04-01T12:43:28;10.77;;;4.80;;
65373;SDS011;52070;53.760;9.678;2023-04-01T12:46:26;9.23;;;4.53;;
65373;SDS011;52070;53.760;9.678;2023-04-01T12:49:06;10.77;;;5.10;;
65373;SDS011;52070;53.760;9.678;2023-04-01T12:51:53;13.65;;;4.85;;
65373;SDS011;52070;53.760;9.678;2023-04-01T12:57:45;8.48;;;4.18;;
65373;SDS011;52070;53.760;9.678;2023-04-01T13:00:46;10.80;;;4.20;;
65373;SDS011;52070;53.760;9.678;2023-04-01T13:03:30;8.80;;;3.70;;
65373;SDS011;52070;53.760;9.678;2023-04-01T13:06:18;8.18;;;3.47;;
65373;SDS011;52070;53.760;9.678;2023-04-01T13:08:50;9.90;;;3.85;;
65373;SDS011;52070;53.760;9.678;2023-04-01T13:11:25;12.07;;;4.13;;
65373;SDS011;52070;53.760;9.678;2023-04-01T13:14:18;11.95;;;4.35;;
65373;SDS011;52070;53.760;9.678;2023-04-01T13:16:57;8.90;;;3.47;;
65373;SDS011;52070;53.760;9.678;2023-04-01T13:19:30;9.02;;;3.78;;
65373;SDS011;52070;53.760;9.678;2023-04-01T13:22:03;12.07;;;3.75;;
65373;SDS011;52070;53.760;9.678;2023-04-01T13:24:38;9.57;;;3.58;;
65373;SDS011;52070;53.760;9.678;2023-04-01T13:27:13;7.10;;;3.05;;
65373;SDS011;52070;53.760;9.678;2023-04-01T13:29:57;7.32;;;3.42;;
65373;SDS011;52070;53.760;9.678;2023-04-01T13:32:34;8.40;;;3.88;;
65373;SDS011;52070;53.760;9.678;2023-04-01T13:35:16;10.38;;;3.30;;
65373;SDS011;52070;53.760;9.678;2023-04-01T13:37:52;5.32;;;3.20;;
65373;SDS011;52070;53.760;9.678;2023-04-01T13:40:33;7.82;;;3.35;;
65373;SDS011;52070;53.760;9.678;2023-04-01T13:43:07;7.78;;;3.50;;
65373;SDS011;52070;53.760;9.678;2023-04-01T13:45:46;7.47;;;3.25;;
65373;SDS011;52070;53.760;9.678;2023-04-01T13:48:29;10.95;;;3.47;;
65373;SDS011;52070;53.760;9.678;2023-04-01T13:51:24;6.30;;;3.15;;
65373;SDS011;52070;53.760;9.678;2023-04-01T13:54:11;7.35;;;3.30;;
65373;SDS011;52070;53.760;9.678;2023-04-01T13:56:57;11.73;;;3.63;;
65373;SDS011;52070;53.760;9.678;2023-04-01T13:59:47;9.73;;;3.90;;
65373;SDS011;52070;53.760;9.678;2023-04-01T14:02:42;11.57;;;4.18;;
65373;SDS011;52070;53.760;9.678;2023-04-01T14:05:24;7.20;;;3.80;;
65373;SDS011;52070;53.760;9.678;2023-04-01T14:08:09;11.70;;;3.78;;
65373;SDS011;52070;53.760;9.678;2023-04-01T14:10:45;10.05;;;4.20;;
65373;SDS011;52070;53.760;9.678;2023-04-01T14:13:21;10.00;;;3.63;;
65373;SDS011;52070;53.760;9.678;2023-04-01T14:15:56;6.78;;;3.10;;
65373;SDS011;52070;53.760;9.678;2023-04-01T14:21:17;14.65;;;4.07;;
65373;SDS011;52070;53.760;9.678;2023-04-01T14:23:53;9.57;;;4.10;;
65373;SDS011;52070;53.760;9.678;2023-04-01T14:29:41;8.48;;;3.88;;
65373;SDS011;52070;53.760;9.678;2023-04-01T14:32:20;11.35;;;3.65;;
65373;SDS011;52070;53.760;9.678;2023-04-01T14:35:04;11.70;;;3.80;;
65373;SDS011;52070;53.760;9.678;2023-04-01T14:37:57;7.50;;;3.17;;
65373;SDS011;52070;53.760;9.678;2023-04-01T14:40:38;7.78;;;3.40;;
65373;SDS011;52070;53.760;9.678;2023-04-01T14:43:28;9.07;;;3.17;;
65373;SDS011;52070;53.760;9.678;2023-04-01T14:49:20;9.55;;;3.63;;
65373;SDS011;52070;53.760;9.678;2023-04-01T14:51:52;9.70;;;4.00;;
65373;SDS011;52070;53.760;9.678;2023-04-01T14:54:21;10.57;;;3.75;;
65373;SDS011;52070;53.760;9.678;2023-04-01T14:57:03;7.72;;;3.88;;
65373;SDS011;52070;53.760;9.678;2023-04-01T14:59:39;11.00;;;3.92;;
65373;SDS011;52070;53.760;9.678;2023-04-01T15:04:43;13.80;;;4.10;;
65373;SDS011;52070;53.760;9.678;2023-04-01T15:07:30;11.25;;;4.03;;
65373;SDS011;52070;53.760;9.678;2023-04-01T15:10:12;12.30;;;4.25;;
65373;SDS011;52070;53.760;9.678;2023-04-01T15:12:52;15.45;;;4.03;;
65373;SDS011;52070;53.760;9.678;2023-04-01T15:15:35;15.15;;;3.35;;
65373;SDS011;52070;53.760;9.678;2023-04-01T15:18:08;9.90;;;3.63;;
65373;SDS011;52070;53.760;9.678;2023-04-01T15:20:41;10.15;;;3.72;;
65373;SDS011;52070;53.760;9.678;2023-04-01T15:23:19;12.90;;;3.53;;
65373;SDS011;52070;53.760;9.678;2023-04-01T15:26:05;10.18;;;3.78;;
65373;SDS011;52070;53.760;9.678;2023-04-01T15:28:41;8.95;;;3.40;;
65373;SDS011;52070;53.760;9.678;2023-04-01T15:31:20;11.15;;;3.70;;
65373;SDS011;52070;53.760;9.678;2023-04-01T15:33:58;9.40;;;3.72;;
65373;SDS011;52070;53.760;9.678;2023-04-01T15:36:37;12.45;;;3.88;;
65373;SDS011;52070;53.760;9.678;2023-04-01T15:39:12;9.93;;;3.60;;
65373;SDS011;52070;53.760;9.678;2023-04-01T15:41:45;12.77;;;3.90;;
65373;SDS011;52070;53.760;9.678;2023-04-01T15:44:33;9.77;;;3.92;;
65373;SDS011;52070;53.760;9.678;2023-04-01T15:47:24;9.10;;;3.33;;
65373;SDS011;52070;53.760;9.678;2023-04-01T15:50:05;13.88;;;3.72;;
65373;SDS011;52070;53.760;9.678;2023-04-01T15:52:49;13.45;;;3.47;;
65373;SDS011;52070;53.760;9.678;2023-04-01T15:55:30;8.55;;;3.78;;
65373;SDS011;52070;53.760;9.678;2023-04-01T15:58:06;13.63;;;3.97;;
65373;SDS011;52070;53.760;9.678;2023-04-01T16:00:56;12.82;;;3.70;;
65373;SDS011;52070;53.760;9.678;2023-04-01T16:03:36;11.63;;;3.60;;
65373;SDS011;52070;53.760;9.678;2023-04-01T16:06:24;10.77;;;3.70;;
65373;SDS011;52070;53.760;9.678;2023-04-01T16:09:16;8.77;;;3.50;;
65373;SDS011;52070;53.760;9.678;2023-04-01T16:11:55;7.03;;;3.60;;
65373;SDS011;52070;53.760;9.678;2023-04-01T16:14:29;10.20;;;3.22;;
65373;SDS011;52070;53.760;9.678;2023-04-01T16:17:12;9.73;;;3.17;;
65373;SDS011;52070;53.760;9.678;2023-04-01T16:19:53;8.20;;;3.20;;
65373;SDS011;52070;53.760;9.678;2023-04-01T16:22:29;9.63;;;3.40;;
65373;SDS011;52070;53.760;9.678;2023-04-01T16:25:02;8.75;;;3.53;;
65373;SDS011;52070;53.760;9.678;2023-04-01T16:27:46;8.93;;;3.10;;
65373;SDS011;52070;53.760;9.678;2023-04-01T16:30:26;6.45;;;2.80;;
65373;SDS011;52070;53.760;9.678;2023-04-01T16:33:01;7.65;;;3.30;;
65373;SDS011;52070;53.760;9.678;2023-04-01T16:35:34;14.38;;;3.10;;
65373;SDS011;52070;53.760;9.678;2023-04-01T16:38:09;8.93;;;2.83;;
65373;SDS011;52070;53.760;9.678;2023-04-01T16:40:43;11.45;;;3.38;;
65373;SDS011;52070;53.760;9.678;2023-04-01T16:43:18;10.07;;;3.47;;
65373;SDS011;52070;53.760;9.678;2023-04-01T16:45:57;11.38;;;3.42;;
65373;SDS011;52070;53.760;9.678;2023-04-01T16:48:45;11.43;;;3.35;;
65373;SDS011;52070;53.760;9.678;2023-04-01T16:51:21;4.90;;;2.92;;